Time;durP1;ratioP1;P1;durP2;ratioP2;P2;SDS_P1;SDS_P2;PMS_P1;PMS_P2;Temp;Humidity;BMP_temperature;BMP_pressure;BME280_temperature;BME280_humidity;BME280_pressure;Samples;Min_cycle;Max_cycle;Signal;HPM_P1;HPM_P2
2023/04/26 00:01:29;;;;;;;2.97;1.37;;;2.70;99.90;;;;;;5032079;28;20179;-74
2023/04/26 00:03:56;;;;;;;2.60;1.33;;;2.70;99.90;;;;;;5030806;28;20553;-74
2023/04/26 00:06:22;;;;;;;2.63;1.40;;;2.70;99.90;;;;;;5030592;28;20199;-74
2023/04/26 00:08:47;;;;;;;3.63;1.70;;;2.60;99.90;;;;;;5031871;28;20169;-74
2023/04/26 00:11:13;;;;;;;6.67;1.70;;;2.50;99.90;;;;;;5031293;28;20205;-74
2023/04/26 00:13:38;;;;;;;4.23;1.87;;;2.50;99.90;;;;;;5031622;28;20199;-74
2023/04/26 00:16:04;;;;;;;4.67;1.80;;;2.40;99.90;;;;;;5031673;28;20212;-74
2023/04/26 00:18:30;;;;;;;4.37;1.73;;;2.40;99.90;;;;;;5031760;28;20180;-74
2023/04/26 00:20:56;;;;;;;4.17;2.07;;;2.30;99.90;;;;;;5031677;28;20749;-74
2023/04/26 00:23:22;;;;;;;2.60;1.53;;;2.30;99.90;;;;;;5031667;28;20230;-74
2023/04/26 00:25:47;;;;;;;5.27;1.80;;;2.30;99.90;;;;;;5031650;28;20196;-74
2023/04/26 00:28:13;;;;;;;3.90;1.80;;;2.20;99.90;;;;;;5031771;28;20173;-74
2023/04/26 00:30:41;;;;;;;4.17;1.63;;;2.20;99.90;;;;;;5031650;28;20187;-74
2023/04/26 00:33:06;;;;;;;6.10;2.10;;;2.20;99.90;;;;;;5030180;28;20181;-74
2023/04/26 00:35:32;;;;;;;2.63;1.57;;;2.10;99.90;;;;;;5031388;28;20699;-74
2023/04/26 00:37:58;;;;;;;2.93;1.87;;;2.10;99.90;;;;;;5031421;28;20169;-73
2023/04/26 00:40:23;;;;;;;5.43;1.87;;;2.10;99.90;;;;;;5030115;28;20179;-74
2023/04/26 00:42:56;;;;;;;2.93;1.63;;;2.00;99.90;;;;;;5031408;28;20173;-74
2023/04/26 00:45:22;;;;;;;6.00;1.83;;;2.00;99.90;;;;;;5031533;28;20208;-74
2023/04/26 00:47:47;;;;;;;2.87;1.50;;;2.00;99.90;;;;;;5030966;28;20164;-74
2023/04/26 00:50:13;;;;;;;2.43;1.60;;;1.90;99.90;;;;;;5030560;28;20588;-74
2023/04/26 00:52:39;;;;;;;4.40;1.80;;;1.90;99.90;;;;;;5031359;28;20180;-74
2023/04/26 00:55:06;;;;;;;4.93;1.60;;;1.80;99.90;;;;;;5031173;28;20215;-74
2023/04/26 00:57:31;;;;;;;3.90;1.50;;;1.80;99.90;;;;;;5031005;28;20207;-73
2023/04/26 00:59:57;;;;;;;3.57;1.50;;;1.80;99.90;;;;;;5031129;28;20180;-74
2023/04/26 01:02:23;;;;;;;4.00;1.80;;;1.80;99.90;;;;;;5031116;28;20172;-74
2023/04/26 01:04:49;;;;;;;2.70;1.63;;;1.80;99.90;;;;;;5031006;28;20544;-74
2023/04/26 01:07:15;;;;;;;2.30;1.60;;;1.70;99.90;;;;;;5031018;28;20168;-74
2023/04/26 01:09:41;;;;;;;5.27;1.90;;;1.70;99.90;;;;;;5030986;28;20168;-73
2023/04/26 01:12:08;;;;;;;3.57;1.60;;;1.70;99.90;;;;;;5030796;28;20184;-74
2023/04/26 01:14:35;;;;;;;3.77;1.70;;;1.60;99.90;;;;;;5029534;28;20661;-73
2023/04/26 01:17:02;;;;;;;2.70;1.70;;;1.60;99.90;;;;;;5029555;28;20200;-74
2023/04/26 01:19:28;;;;;;;1.93;1.60;;;1.60;99.90;;;;;;5031044;28;20217;-74
2023/04/26 01:21:53;;;;;;;5.10;1.67;;;1.60;99.90;;;;;;5031347;28;20509;-73
2023/04/26 01:24:19;;;;;;;3.13;1.77;;;1.60;99.90;;;;;;5029391;28;20179;-74
2023/04/26 01:26:45;;;;;;;7.43;2.23;;;1.60;99.90;;;;;;5030842;28;20218;-74
2023/04/26 01:29:18;;;;;;;3.63;1.50;;;1.50;99.90;;;;;;5030805;28;20173;-74
2023/04/26 01:31:45;;;;;;;3.47;1.90;;;1.60;99.90;;;;;;5030643;28;20604;-74
2023/04/26 01:34:10;;;;;;;6.00;1.97;;;1.50;99.90;;;;;;5030593;28;20176;-74
2023/04/26 01:36:36;;;;;;;3.70;1.80;;;1.50;99.90;;;;;;5029176;28;20596;-73
2023/04/26 01:39:02;;;;;;;2.67;1.50;;;1.50;99.90;;;;;;5030550;28;20172;-74
2023/04/26 01:41:28;;;;;;;2.87;1.90;;;1.40;99.90;;;;;;5030750;28;20219;-73
2023/04/26 01:43:54;;;;;;;4.07;1.83;;;1.40;99.90;;;;;;5030352;28;20204;-74
2023/04/26 01:46:20;;;;;;;4.10;2.00;;;1.40;99.90;;;;;;5029081;28;20199;-73
2023/04/26 01:48:46;;;;;;;6.47;2.33;;;1.40;99.90;;;;;;5030594;28;20255;-73
2023/04/26 01:51:12;;;;;;;7.57;2.20;;;1.40;99.90;;;;;;5028994;28;20227;-73
2023/04/26 01:53:37;;;;;;;3.27;2.53;;;1.30;99.90;;;;;;5029015;28;20177;-73
2023/04/26 01:56:04;;;;;;;2.80;1.87;;;1.30;99.90;;;;;;5029141;28;20297;-74
2023/04/26 01:58:30;;;;;;;4.73;2.00;;;1.30;99.90;;;;;;5030420;28;20196;-74
2023/04/26 02:01:03;;;;;;;3.40;1.50;;;1.30;99.90;;;;;;5029880;28;20231;-73
2023/04/26 02:03:29;;;;;;;4.30;2.20;;;1.30;99.90;;;;;;5030298;28;20182;-73
2023/04/26 02:05:54;;;;;;;3.27;1.70;;;1.30;99.90;;;;;;5028764;28;20195;-74
2023/04/26 02:08:20;;;;;;;3.93;2.00;;;1.30;99.90;;;;;;5030074;28;20180;-73
2023/04/26 02:10:46;;;;;;;7.90;2.00;;;1.20;99.90;;;;;;5028719;28;20188;-73
2023/04/26 02:13:11;;;;;;;2.03;1.77;;;1.20;99.90;;;;;;5029993;28;20230;-73
2023/04/26 02:15:37;;;;;;;5.63;2.00;;;1.20;99.90;;;;;;5029803;28;20204;-74
2023/04/26 02:18:02;;;;;;;3.20;1.90;;;1.20;99.90;;;;;;5028681;28;20280;-74
2023/04/26 02:20:28;;;;;;;4.63;1.77;;;1.10;99.90;;;;;;5029818;28;20675;-73
2023/04/26 02:22:53;;;;;;;4.03;2.17;;;1.10;99.90;;;;;;5029805;28;20176;-74
2023/04/26 02:25:19;;;;;;;3.03;1.63;;;1.10;99.90;;;;;;5029689;28;20566;-74
2023/04/26 02:27:45;;;;;;;3.70;1.97;;;1.10;99.90;;;;;;5029773;28;20677;-74
2023/04/26 02:30:11;;;;;;;7.20;2.07;;;1.10;99.90;;;;;;5029771;28;20627;-73
2023/04/26 02:32:36;;;;;;;3.47;2.07;;;1.10;99.90;;;;;;5029932;28;20573;-73
2023/04/26 02:35:04;;;;;;;2.03;1.73;;;1.10;99.90;;;;;;5029673;28;20214;-73
2023/04/26 02:37:29;;;;;;;2.80;1.50;;;1.00;99.90;;;;;;5029568;28;20199;-74
2023/04/26 02:39:55;;;;;;;4.00;2.30;;;1.00;99.90;;;;;;5029655;28;20215;-74
2023/04/26 02:42:20;;;;;;;4.87;2.43;;;1.00;99.90;;;;;;5028307;28;20180;-73
2023/04/26 02:44:46;;;;;;;7.13;2.17;;;1.00;99.90;;;;;;5029686;28;20173;-73
2023/04/26 02:47:11;;;;;;;9.67;2.20;;;1.00;99.90;;;;;;5029769;28;20179;-74
2023/04/26 02:49:37;;;;;;;5.27;2.33;;;1.00;99.90;;;;;;5029584;28;20187;-73
2023/04/26 02:52:02;;;;;;;2.63;1.90;;;1.00;99.90;;;;;;5029764;28;20658;-74
2023/04/26 02:54:28;;;;;;;3.77;2.07;;;1.10;99.90;;;;;;5029501;28;20180;-73
2023/04/26 02:56:54;;;;;;;3.50;2.10;;;1.00;99.90;;;;;;5029330;28;20215;-74
2023/04/26 02:59:20;;;;;;;5.00;1.93;;;1.00;99.90;;;;;;5028152;28;20179;-73
2023/04/26 03:01:45;;;;;;;7.30;2.47;;;1.00;99.90;;;;;;5029741;28;20180;-74
2023/04/26 03:04:11;;;;;;;4.83;2.63;;;1.00;99.90;;;;;;5028012;28;20656;-74
2023/04/26 03:06:37;;;;;;;3.10;1.97;;;0.90;99.90;;;;;;5029440;28;20204;-74
2023/04/26 03:09:04;;;;;;;2.97;2.10;;;0.90;99.90;;;;;;5027993;28;20233;-74
2023/04/26 03:11:30;;;;;;;7.30;2.10;;;0.90;99.90;;;;;;5029361;28;20605;-74
2023/04/26 03:13:55;;;;;;;2.97;2.23;;;0.90;99.90;;;;;;5033190;28;20225;-74
2023/04/26 03:16:22;;;;;;;7.00;2.97;;;0.90;99.90;;;;;;5032639;28;20722;-74
2023/04/26 03:18:48;;;;;;;5.63;2.50;;;0.90;99.90;;;;;;5032718;28;20172;-74
2023/04/26 03:21:14;;;;;;;4.90;2.17;;;0.80;99.90;;;;;;5031325;28;20195;-74
2023/04/26 03:23:39;;;;;;;5.73;2.23;;;0.80;99.90;;;;;;5032775;28;20220;-74
2023/04/26 03:26:05;;;;;;;5.90;2.17;;;0.80;99.90;;;;;;5032649;28;20781;-74
2023/04/26 03:28:31;;;;;;;3.87;2.27;;;0.80;99.90;;;;;;5032791;28;20229;-74
2023/04/26 03:30:56;;;;;;;2.57;1.93;;;0.80;99.90;;;;;;5032524;28;20164;-74
2023/04/26 03:33:22;;;;;;;4.30;2.17;;;0.80;99.90;;;;;;5032854;28;20640;-74
2023/04/26 03:35:48;;;;;;;2.63;2.00;;;0.80;99.90;;;;;;5032815;28;20214;-73
2023/04/26 03:38:13;;;;;;;7.10;2.93;;;0.80;99.90;;;;;;5032442;28;20194;-74
2023/04/26 03:40:39;;;;;;;6.83;2.40;;;0.70;99.90;;;;;;5031077;28;20185;-73
2023/04/26 03:43:04;;;;;;;6.47;2.63;;;0.70;99.90;;;;;;5032562;28;20178;-74
2023/04/26 03:45:30;;;;;;;4.20;2.47;;;0.70;99.90;;;;;;5031032;28;20227;-74
2023/04/26 03:47:55;;;;;;;4.13;2.40;;;0.70;99.90;;;;;;5032301;28;20176;-74
2023/04/26 03:50:21;;;;;;;3.30;2.13;;;0.70;99.90;;;;;;5030972;28;20182;-74
2023/04/26 03:52:47;;;;;;;7.53;2.73;;;0.70;99.90;;;;;;5030868;28;20175;-74
2023/04/26 03:55:12;;;;;;;3.93;2.40;;;0.70;99.90;;;;;;5032270;28;20195;-74
2023/04/26 03:57:38;;;;;;;6.30;2.33;;;0.70;99.90;;;;;;5032226;28;20543;-74
2023/04/26 04:00:12;;;;;;;3.03;2.17;;;0.70;99.90;;;;;;5030816;28;20176;-74
2023/04/26 04:02:38;;;;;;;5.53;2.20;;;0.70;99.90;;;;;;5031160;28;20262;-74
2023/04/26 04:05:04;;;;;;;3.70;1.93;;;0.60;99.90;;;;;;5032150;28;20200;-74
2023/04/26 04:07:31;;;;;;;4.47;2.20;;;0.60;99.90;;;;;;5032389;28;20171;-74
2023/04/26 04:09:57;;;;;;;4.10;2.60;;;0.60;99.90;;;;;;5031899;28;20175;-74
2023/04/26 04:12:23;;;;;;;3.93;2.23;;;0.50;99.90;;;;;;5031855;28;20191;-74
2023/04/26 04:14:48;;;;;;;5.53;2.33;;;0.50;99.90;;;;;;5031915;28;20551;-74
2023/04/26 04:17:14;;;;;;;8.03;2.43;;;0.50;99.90;;;;;;5030528;28;20203;-73
2023/04/26 04:19:39;;;;;;;4.93;2.20;;;0.50;99.90;;;;;;5031984;28;20597;-73
2023/04/26 04:22:05;;;;;;;6.00;2.50;;;0.50;99.90;;;;;;5030356;28;20210;-73
2023/04/26 04:24:31;;;;;;;4.17;2.50;;;0.60;99.90;;;;;;5031507;28;20168;-74
2023/04/26 04:26:56;;;;;;;6.77;2.53;;;0.60;99.90;;;;;;5031582;28;20572;-74
2023/04/26 04:29:22;;;;;;;4.90;2.60;;;0.60;99.90;;;;;;5031706;28;20191;-74
2023/04/26 04:31:48;;;;;;;8.00;2.50;;;0.60;99.90;;;;;;5031551;28;20172;-75
2023/04/26 04:34:13;;;;;;;3.70;2.03;;;0.50;99.90;;;;;;5034259;28;20172;-73
2023/04/26 04:36:39;;;;;;;7.50;2.37;;;0.60;99.90;;;;;;5033077;28;20207;-73
2023/04/26 04:39:11;;;;;;;2.50;1.87;;;0.50;99.90;;;;;;5032905;28;20252;-73
2023/04/26 04:41:36;;;;;;;10.20;2.33;;;0.50;99.90;;;;;;5032559;28;20171;-75
2023/04/26 04:44:02;;;;;;;6.77;2.43;;;0.60;99.90;;;;;;5033035;28;20255;-73
2023/04/26 04:46:28;;;;;;;5.60;2.70;;;0.60;99.90;;;;;;5031288;28;20723;-73
2023/04/26 04:48:54;;;;;;;4.03;2.20;;;0.60;99.90;;;;;;5031865;28;20204;-72
2023/04/26 04:51:20;;;;;;;5.50;2.47;;;0.60;99.90;;;;;;5031532;28;20190;-75
2023/04/26 04:53:45;;;;;;;6.30;3.07;;;0.60;99.90;;;;;;5031652;28;20237;-72
2023/04/26 04:56:11;;;;;;;5.07;2.57;;;0.60;99.90;;;;;;5030601;28;20200;-73
2023/04/26 04:58:36;;;;;;;5.47;3.47;;;0.70;99.90;;;;;;5030606;28;20169;-75
2023/04/26 05:01:02;;;;;;;3.47;2.20;;;0.70;99.90;;;;;;5030522;28;20704;-73
2023/04/26 05:03:27;;;;;;;5.27;2.80;;;0.70;99.90;;;;;;5030423;28;20259;-73
2023/04/26 05:05:53;;;;;;;10.03;3.33;;;0.70;99.90;;;;;;5028914;28;20289;-74
2023/04/26 05:08:18;;;;;;;7.97;2.77;;;0.80;99.90;;;;;;5030299;28;20287;-73
2023/04/26 05:10:44;;;;;;;6.07;2.97;;;0.80;99.90;;;;;;5030765;28;20655;-72
2023/04/26 05:13:10;;;;;;;4.43;2.37;;;0.80;99.90;;;;;;5031567;28;20227;-72
2023/04/26 05:15:35;;;;;;;5.90;2.57;;;0.80;99.90;;;;;;5030051;28;20207;-72
2023/04/26 05:18:01;;;;;;;4.17;2.40;;;0.80;99.90;;;;;;5031227;28;20251;-72
2023/04/26 05:20:27;;;;;;;4.87;2.27;;;0.80;99.90;;;;;;5029668;28;20176;-72
2023/04/26 05:22:52;;;;;;;6.50;3.17;;;0.80;99.90;;;;;;5031102;28;20184;-72
2023/04/26 05:25:18;;;;;;;8.03;2.50;;;0.90;99.90;;;;;;5030913;28;20242;-72
2023/04/26 05:27:44;;;;;;;6.43;2.97;;;0.90;99.90;;;;;;5029590;28;20582;-72
2023/04/26 05:30:11;;;;;;;7.90;3.37;;;1.00;99.90;;;;;;5030824;28;20301;-72
2023/04/26 05:32:36;;;;;;;7.23;2.63;;;1.00;99.90;;;;;;5030788;28;20169;-72
2023/04/26 05:35:02;;;;;;;4.10;2.47;;;1.00;99.90;;;;;;5030129;28;20564;-72
2023/04/26 05:37:27;;;;;;;6.87;2.80;;;1.00;99.90;;;;;;5029569;28;20200;-72
2023/04/26 05:39:53;;;;;;;9.17;2.80;;;1.10;99.90;;;;;;5030732;28;20642;-72
2023/04/26 05:42:19;;;;;;;6.53;2.90;;;1.10;99.90;;;;;;5030922;28;20180;-72
2023/04/26 05:44:44;;;;;;;4.13;2.77;;;1.20;99.90;;;;;;5030820;28;20172;-72
2023/04/26 05:47:10;;;;;;;3.70;2.37;;;1.20;99.90;;;;;;5030795;28;20629;-71
2023/04/26 05:49:35;;;;;;;5.60;2.87;;;1.30;99.90;;;;;;5030634;28;20259;-72
2023/04/26 05:52:02;;;;;;;9.30;2.80;;;1.30;99.90;;;;;;5030822;28;20592;-72
2023/04/26 05:54:28;;;;;;;4.93;3.10;;;1.40;99.90;;;;;;5029247;28;20190;-72
2023/04/26 05:56:53;;;;;;;8.07;3.70;;;1.40;99.90;;;;;;5029104;28;20290;-72
2023/04/26 05:59:19;;;;;;;6.33;3.50;;;1.50;99.90;;;;;;5029093;28;20176;-71
2023/04/26 06:01:45;;;;;;;5.30;3.23;;;1.60;99.90;;;;;;5030370;28;20179;-72
2023/04/26 06:04:11;;;;;;;7.17;3.73;;;1.60;99.90;;;;;;5029045;28;20169;-72
2023/04/26 06:06:36;;;;;;;9.23;4.70;;;1.80;99.90;;;;;;5028922;28;20636;-72
2023/04/26 06:09:02;;;;;;;5.53;3.47;;;1.90;99.90;;;;;;5030238;28;20168;-72
2023/04/26 06:11:27;;;;;;;6.23;4.23;;;2.00;99.90;;;;;;5029173;28;20635;-71
2023/04/26 06:13:53;;;;;;;14.67;5.93;;;2.10;99.90;;;;;;5030139;28;20677;-72
2023/04/26 06:16:20;;;;;;;11.27;5.73;;;2.20;99.90;;;;;;5029997;28;20193;-71
2023/04/26 06:18:45;;;;;;;10.53;6.87;;;2.30;99.90;;;;;;5029398;28;20206;-71
2023/04/26 06:21:11;;;;;;;11.70;6.70;;;2.40;99.90;;;;;;5029035;28;20172;-72
2023/04/26 06:23:36;;;;;;;10.60;7.07;;;2.50;99.90;;;;;;5030198;28;20191;-71
2023/04/26 06:26:02;;;;;;;16.50;8.50;;;2.60;99.90;;;;;;5030029;28;20536;-72
2023/04/26 06:28:27;;;;;;;17.27;8.83;;;2.80;99.90;;;;;;5030016;28;20179;-71
2023/04/26 06:30:53;;;;;;;17.57;8.67;;;2.90;99.90;;;;;;5029951;28;20187;-71
2023/04/26 06:33:18;;;;;;;15.53;9.53;;;3.00;99.90;;;;;;5028728;28;20184;-72
2023/04/26 06:35:45;;;;;;;19.60;10.33;;;3.10;99.90;;;;;;5029758;28;20737;-71
2023/04/26 06:38:11;;;;;;;21.37;12.90;;;3.20;99.90;;;;;;5028447;28;20644;-72
2023/04/26 06:40:37;;;;;;;22.30;12.67;;;3.30;99.90;;;;;;5030185;28;20161;-72
2023/04/26 06:43:03;;;;;;;22.00;13.30;;;3.40;99.90;;;;;;5029864;28;20179;-72
2023/04/26 06:45:28;;;;;;;21.97;13.20;;;3.50;99.90;;;;;;5029480;28;20260;-72
2023/04/26 06:47:54;;;;;;;22.20;13.17;;;3.60;99.90;;;;;;5027572;28;20259;-72
2023/04/26 06:50:20;;;;;;;24.33;12.23;;;3.60;99.90;;;;;;5028524;28;20233;-72
2023/04/26 06:52:45;;;;;;;19.63;13.40;;;3.70;99.90;;;;;;5029906;28;20275;-71
2023/04/26 06:55:11;;;;;;;22.60;13.87;;;3.80;99.90;;;;;;5028379;28;20245;-72
2023/04/26 06:57:36;;;;;;;22.57;12.90;;;3.90;99.90;;;;;;5029306;28;20578;-72
2023/04/26 07:00:03;;;;;;;23.03;12.80;;;4.00;99.90;;;;;;5029446;28;20655;-72
2023/04/26 07:02:28;;;;;;;26.03;12.47;;;4.10;99.90;;;;;;5030044;28;20172;-72
2023/04/26 07:04:54;;;;;;;20.93;11.00;;;4.20;99.90;;;;;;5028112;28;20183;-72
2023/04/26 07:07:20;;;;;;;21.87;12.33;;;4.30;99.90;;;;;;5029470;28;20180;-72
2023/04/26 07:09:46;;;;;;;23.07;11.87;;;4.40;99.90;;;;;;5029718;28;20179;-72
2023/04/26 07:12:12;;;;;;;27.43;15.40;;;4.50;99.90;;;;;;5029397;28;20199;-72
2023/04/26 07:14:39;;;;;;;24.50;12.53;;;4.60;99.90;;;;;;5029345;28;20177;-72
2023/04/26 07:17:08;;;;;;;24.00;12.00;;;4.70;99.90;;;;;;5029435;28;20203;-72
2023/04/26 07:19:34;;;;;;;19.37;12.23;;;4.80;99.90;;;;;;5029432;28;20185;-72
2023/04/26 07:22:00;;;;;;;26.70;12.83;;;4.90;99.90;;;;;;5029335;28;20184;-72
2023/04/26 07:24:26;;;;;;;30.07;13.77;;;5.00;99.90;;;;;;5029335;28;20183;-72
2023/04/26 07:26:51;;;;;;;26.20;12.37;;;5.10;99.90;;;;;;5029528;28;20192;-72
2023/04/26 07:29:20;;;;;;;22.07;12.33;;;5.30;99.90;;;;;;5029375;28;20267;-72
2023/04/26 07:31:46;;;;;;;24.53;12.63;;;5.40;99.90;;;;;;5029380;28;20188;-74
2023/04/26 07:34:12;;;;;;;26.20;12.30;;;5.50;99.90;;;;;;5029208;28;20174;-71
2023/04/26 07:36:38;;;;;;;30.93;12.97;;;5.60;99.90;;;;;;5027510;28;20240;-71
2023/04/26 07:39:08;;;;;;;28.83;12.60;;;5.70;99.90;;;;;;5028855;28;20182;-72
2023/04/26 07:41:34;;;;;;;22.07;12.50;;;5.80;99.90;;;;;;5028918;28;20577;-72
2023/04/26 07:43:59;;;;;;;22.90;12.77;;;5.90;99.90;;;;;;5027562;28;20173;-72
2023/04/26 07:46:25;;;;;;;23.37;11.87;;;6.10;99.90;;;;;;5029030;28;20547;-74
2023/04/26 07:48:50;;;;;;;17.97;11.23;;;6.20;99.90;;;;;;5028825;28;20229;-73
2023/04/26 07:51:16;;;;;;;24.17;10.63;;;6.30;99.90;;;;;;5028795;28;20188;-73
2023/04/26 07:53:41;;;;;;;22.57;10.30;;;6.40;99.90;;;;;;5028952;28;20263;-74
2023/04/26 07:56:08;;;;;;;19.50;11.07;;;6.50;99.90;;;;;;5028496;28;20262;-73
2023/04/26 07:58:35;;;;;;;18.87;9.23;;;6.60;99.90;;;;;;5030431;28;20219;-73
2023/04/26 08:01:01;;;;;;;12.00;7.73;;;6.80;99.90;;;;;;5032117;28;20211;-74
2023/04/26 08:03:27;;;;;;;12.90;6.47;;;6.90;99.90;;;;;;5032038;28;20200;-74
2023/04/26 08:05:52;;;;;;;13.23;5.97;;;7.00;99.90;;;;;;5032177;28;20196;-73
2023/04/26 08:08:18;;;;;;;12.50;6.10;;;7.10;99.90;;;;;;5030622;28;20372;-74
2023/04/26 08:10:44;;;;;;;13.33;6.33;;;7.20;99.90;;;;;;5030652;28;20184;-74
2023/04/26 08:13:10;;;;;;;12.17;6.03;;;7.20;99.90;;;;;;5031782;28;20651;-74
2023/04/26 08:15:36;;;;;;;12.93;5.37;;;7.30;99.90;;;;;;5030289;28;20680;-73
2023/04/26 08:18:01;;;;;;;12.40;4.40;;;7.30;99.90;;;;;;5032041;28;20336;-74
2023/04/26 08:20:27;;;;;;;11.83;3.37;;;7.30;99.90;;;;;;5031765;28;20610;-74
2023/04/26 08:22:58;;;;;;;10.50;3.93;;;7.40;99.90;;;;;;5031748;28;20522;-73
2023/04/26 08:25:24;;;;;;;9.03;4.37;;;7.50;99.90;;;;;;5031811;28;20199;-74
2023/04/26 08:27:50;;;;;;;11.00;4.87;;;7.50;99.90;;;;;;5030219;28;20233;-74
2023/04/26 08:30:16;;;;;;;11.57;5.30;;;7.60;99.90;;;;;;5030273;28;20184;-74
2023/04/26 08:32:42;;;;;;;16.47;5.30;;;7.70;99.90;;;;;;5031620;28;20255;-73
2023/04/26 08:35:08;;;;;;;12.10;4.40;;;7.70;99.90;;;;;;5030231;28;20766;-73
2023/04/26 08:37:35;;;;;;;9.50;4.60;;;7.70;99.90;;;;;;5030167;28;20223;-74
2023/04/26 08:40:00;;;;;;;14.50;4.27;;;7.70;99.90;;;;;;5031530;28;20211;-74
2023/04/26 08:42:27;;;;;;;5.07;3.43;;;7.50;99.90;;;;;;5030186;28;20735;-74
2023/04/26 08:44:53;;;;;;;10.33;4.00;;;7.50;99.90;;;;;;5031293;28;20199;-74
2023/04/26 08:47:30;;;;;;;12.00;4.30;;;7.50;99.90;;;;;;5031564;28;20226;-74
2023/04/26 08:50:02;;;;;;;10.40;4.00;;;7.50;99.90;;;;;;5031561;28;20263;-74
2023/04/26 08:52:29;;;;;;;11.07;5.47;;;7.60;99.90;;;;;;5031757;28;20613;-74
2023/04/26 08:54:59;;;;;;;11.17;5.03;;;7.70;99.90;;;;;;5031118;28;20180;-74
2023/04/26 08:57:25;;;;;;;9.93;5.03;;;7.70;99.90;;;;;;5031171;28;20538;-74
2023/04/26 08:59:52;;;;;;;13.60;5.23;;;7.70;99.90;;;;;;5029932;28;20183;-74
2023/04/26 09:02:19;;;;;;;12.03;4.37;;;7.80;99.90;;;;;;5031132;28;20187;-74
2023/04/26 09:04:46;;;;;;;12.37;5.37;;;7.80;99.90;;;;;;5029767;28;20172;-75
2023/04/26 09:07:19;;;;;;;7.73;4.43;;;7.80;99.90;;;;;;5029790;28;20185;-75
2023/04/26 09:09:49;;;;;;;13.53;4.80;;;7.80;99.90;;;;;;5028722;28;20173;-74
2023/04/26 09:12:18;;;;;;;9.87;4.33;;;7.80;99.90;;;;;;5029814;28;20571;-73
2023/04/26 09:14:43;;;;;;;8.73;3.80;;;7.80;99.90;;;;;;5031026;28;20183;-73
2023/04/26 09:17:33;;;;;;;10.73;3.90;;;7.80;99.90;;;;;;5030866;28;20245;-73
2023/04/26 09:19:59;;;;;;;10.60;3.57;;;7.80;99.90;;;;;;5030949;28;20496;-73
2023/04/26 09:22:30;;;;;;;7.60;3.70;;;7.80;99.90;;;;;;5030820;28;20255;-72
2023/04/26 09:24:56;;;;;;;12.33;3.67;;;7.90;99.90;;;;;;5030801;28;20177;-72
2023/04/26 09:27:30;;;;;;;6.13;3.57;;;7.90;99.90;;;;;;5030989;28;20237;-73
2023/04/26 09:30:05;;;;;;;4.07;3.30;;;7.90;99.90;;;;;;5030886;28;20199;-73
2023/04/26 09:32:43;;;;;;;7.33;3.23;;;8.00;99.90;;;;;;5030600;28;20179;-72
2023/04/26 09:35:27;;;;;;;7.70;3.23;;;8.00;99.90;;;;;;5029292;28;20245;-73
2023/04/26 09:38:06;;;;;;;8.37;3.37;;;8.00;99.90;;;;;;5030639;28;20189;-72
2023/04/26 09:40:34;;;;;;;9.20;3.27;;;8.00;99.90;;;;;;5030834;28;20251;-72
2023/04/26 09:43:05;;;;;;;6.67;3.43;;;8.00;99.90;;;;;;5030588;28;20196;-74
2023/04/26 09:45:33;;;;;;;7.97;4.53;;;8.10;99.90;;;;;;5030483;28;20267;-73
2023/04/26 09:48:21;;;;;;;7.47;3.77;;;8.00;99.90;;;;;;5030857;28;20250;-73
2023/04/26 09:50:48;;;;;;;11.00;5.10;;;8.10;99.90;;;;;;5030415;28;20177;-73
2023/04/26 09:53:33;;;;;;;6.50;3.43;;;8.20;99.90;;;;;;5030334;28;20168;-73
2023/04/26 09:56:10;;;;;;;9.27;3.03;;;8.20;99.90;;;;;;5028915;28;20268;-74
2023/04/26 09:58:37;;;;;;;7.57;3.03;;;8.30;99.90;;;;;;5030507;28;20172;-74
2023/04/26 10:01:04;;;;;;;6.50;2.90;;;8.30;99.90;;;;;;5030262;28;20640;-72
2023/04/26 10:03:31;;;;;;;4.53;2.63;;;8.30;99.90;;;;;;5030403;28;20172;-72
2023/04/26 10:05:57;;;;;;;5.87;2.43;;;8.40;98.80;;;;;;5028788;28;20204;-72
2023/04/26 10:08:22;;;;;;;11.07;3.00;;;8.40;99.90;;;;;;5030143;28;20180;-72
2023/04/26 10:10:48;;;;;;;5.53;2.93;;;8.40;99.90;;;;;;5030332;28;20172;-71
2023/04/26 10:13:15;;;;;;;3.97;2.40;;;8.40;98.70;;;;;;5030041;28;20583;-71
2023/04/26 10:15:41;;;;;;;7.13;2.83;;;8.30;97.90;;;;;;5029869;28;20550;-72
2023/04/26 10:18:07;;;;;;;9.30;3.10;;;8.30;99.90;;;;;;5029978;28;20172;-71
2023/04/26 10:20:39;;;;;;;5.57;2.53;;;8.40;99.90;;;;;;5030141;28;20172;-71
2023/04/26 10:23:15;;;;;;;6.10;2.30;;;8.40;99.90;;;;;;5028617;28;20195;-71
2023/04/26 10:25:41;;;;;;;7.17;3.07;;;8.40;76.40;;;;;;5030061;28;20188;-71
2023/04/26 10:28:07;;;;;;;7.60;2.57;;;8.50;83.30;;;;;;5029838;28;20213;-71
2023/04/26 10:30:52;;;;;;;8.67;2.90;;;8.50;64.40;;;;;;5029868;28;20165;-70
2023/04/26 10:33:18;;;;;;;14.13;3.10;;;8.60;93.00;;;;;;5028497;28;20181;-71
2023/04/26 10:36:12;;;;;;;8.57;3.23;;;8.70;80.60;;;;;;5029753;28;20208;-71
2023/04/26 10:38:40;;;;;;;7.13;3.20;;;8.80;95.90;;;;;;5028367;28;20225;-71
2023/04/26 10:41:32;;;;;;;11.30;4.17;;;8.90;95.10;;;;;;5029611;28;20176;-74
2023/04/26 10:44:00;;;;;;;5.97;3.00;;;9.10;39.70;;;;;;5030035;28;20185;-74
2023/04/26 10:46:32;;;;;;;6.33;2.73;;;9.30;46.20;;;;;;5029517;28;20192;-74
2023/04/26 10:48:58;;;;;;;5.03;2.60;;;9.50;29.10;;;;;;5029859;28;20259;-74
2023/04/26 10:51:23;;;;;;;7.83;2.50;;;9.50;1.00;;;;;;5029580;28;20272;-74
2023/04/26 10:53:50;;;;;;;5.67;2.40;;;9.30;1.00;;;;;;5029596;28;20525;-74
2023/04/26 10:56:22;;;;;;;4.27;2.17;;;9.30;1.00;;;;;;5029380;28;20211;-73
2023/04/26 10:58:48;;;;;;;7.27;2.60;;;9.30;1.00;;;;;;5029431;28;20169;-74
2023/04/26 11:01:16;;;;;;;6.83;2.10;;;9.30;1.00;;;;;;5028175;28;20287;-73
2023/04/26 11:03:57;;;;;;;5.60;2.50;;;9.30;1.00;;;;;;5028090;28;20670;-74
2023/04/26 11:06:26;;;;;;;3.63;2.13;;;9.20;1.00;;;;;;5029393;28;20258;-74
2023/04/26 11:08:52;;;;;;;5.83;1.97;;;9.10;1.00;;;;;;5028071;28;20184;-74
2023/04/26 11:11:18;;;;;;;4.73;2.23;;;9.10;1.00;;;;;;5029526;28;20191;-74
2023/04/26 11:13:45;;;;;;;5.77;2.03;;;9.20;1.00;;;;;;5029135;28;20187;-74
2023/04/26 11:16:15;;;;;;;6.40;2.23;;;9.20;1.00;;;;;;5027849;28;20201;-72
2023/04/26 11:18:45;;;;;;;6.07;2.70;;;9.30;1.00;;;;;;5029542;27;20184;-73
2023/04/26 11:21:16;;;;;;;4.10;2.10;;;9.40;1.00;;;;;;5029129;28;20289;-72
2023/04/26 11:23:42;;;;;;;5.57;2.17;;;9.40;1.00;;;;;;5027842;28;20285;-73
2023/04/26 11:26:08;;;;;;;5.97;2.00;;;9.40;1.00;;;;;;5029200;28;20216;-73
2023/04/26 11:28:38;;;;;;;6.13;2.30;;;9.30;1.00;;;;;;5029362;28;20539;-72
2023/04/26 11:31:05;;;;;;;7.93;2.27;;;9.40;1.00;;;;;;5029016;28;20260;-72
2023/04/26 11:33:33;;;;;;;3.03;2.50;;;9.40;1.00;;;;;;5029583;28;20184;-72
2023/04/26 11:35:58;;;;;;;6.43;2.30;;;9.50;1.00;;;;;;5032360;28;20658;-73
2023/04/26 11:38:26;;;;;;;3.67;1.97;;;9.50;1.00;;;;;;5032573;28;20193;-73
2023/04/26 11:41:00;;;;;;;3.40;1.90;;;9.60;1.00;;;;;;5031228;28;20208;-73
2023/04/26 11:43:31;;;;;;;3.53;1.90;;;9.50;1.00;;;;;;5032613;28;20208;-73
2023/04/26 11:46:01;;;;;;;3.03;1.43;;;9.50;99.90;;;;;;5032303;28;20195;-73
2023/04/26 11:48:28;;;;;;;4.20;2.10;;;9.50;1.00;;;;;;5032311;28;20164;-73
2023/04/26 11:51:00;;;;;;;4.13;2.13;;;9.50;1.00;;;;;;5030982;28;20173;-72
2023/04/26 11:53:39;;;;;;;5.77;2.27;;;9.50;1.00;;;;;;5030917;28;20172;-73
2023/04/26 11:56:14;;;;;;;4.30;1.93;;;9.50;1.00;;;;;;5032037;28;20192;-73
2023/04/26 11:58:51;;;;;;;6.93;2.20;;;9.60;1.00;;;;;;5032385;28;20149;-73
2023/04/26 12:01:28;;;;;;;5.07;1.90;;;9.60;1.00;;;;;;5032381;28;20152;-73
2023/04/26 12:03:57;;;;;;;5.00;2.10;;;10.10;1.00;;;;;;5032085;28;20204;-73
2023/04/26 12:06:41;;;;;;;4.53;2.07;;;9.80;1.00;;;;;;5032192;28;20188;-74
2023/04/26 12:09:10;;;;;;;6.20;2.00;;;9.90;1.00;;;;;;5032028;28;20161;-73
2023/04/26 12:11:36;;;;;;;5.80;1.80;;;10.00;1.00;;;;;;5032003;28;20179;-73
2023/04/26 12:14:02;;;;;;;5.00;1.90;;;10.00;1.00;;;;;;5032306;28;20530;-73
2023/04/26 12:16:27;;;;;;;4.23;2.00;;;10.10;1.00;;;;;;5031830;28;20714;-73
2023/04/26 12:18:56;;;;;;;6.83;2.17;;;10.10;1.00;;;;;;5031809;28;20168;-73
2023/04/26 12:21:23;;;;;;;4.63;1.97;;;10.10;1.00;;;;;;5031831;28;20253;-73
2023/04/26 12:23:49;;;;;;;5.73;2.00;;;10.10;1.00;;;;;;5030498;28;20229;-73
2023/04/26 12:26:15;;;;;;;6.53;2.00;;;10.10;1.00;;;;;;5030366;28;20196;-73
2023/04/26 12:28:41;;;;;;;2.30;1.67;;;10.10;1.00;;;;;;5031699;28;20210;-73
2023/04/26 12:31:07;;;;;;;3.83;1.80;;;10.10;1.00;;;;;;5031878;28;20172;-73
2023/04/26 12:33:32;;;;;;;2.83;1.90;;;10.10;1.00;;;;;;5031837;28;20195;-73
2023/04/26 12:36:08;;;;;;;5.10;2.10;;;10.20;1.00;;;;;;5031631;28;20227;-73
2023/04/26 12:38:34;;;;;;;3.83;1.97;;;10.20;1.00;;;;;;5030278;28;20228;-72
2023/04/26 12:41:00;;;;;;;5.07;2.40;;;10.30;1.00;;;;;;5031586;28;20169;-73
2023/04/26 12:43:25;;;;;;;7.87;2.70;;;10.40;1.00;;;;;;5031430;28;20622;-73
2023/04/26 12:45:51;;;;;;;3.17;1.83;;;10.40;1.00;;;;;;5031379;28;20192;-73
2023/04/26 12:48:17;;;;;;;8.77;2.37;;;10.40;99.90;;;;;;5031527;28;20172;-73
2023/04/26 12:50:43;;;;;;;1.80;1.60;;;10.40;1.00;;;;;;5030326;28;20176;-73
2023/04/26 12:53:09;;;;;;;3.70;2.07;;;10.40;1.00;;;;;;5031645;28;20185;-73
2023/04/26 12:55:35;;;;;;;4.87;1.90;;;10.40;1.00;;;;;;5031355;28;20185;-74